Time;durP1;ratioP1;P1;durP2;ratioP2;P2;SDS_P1;SDS_P2;PMS_P1;PMS_P2;Temp;Humidity;BMP_temperature;BMP_pressure;BME280_temperature;BME280_humidity;BME280_pressure;Samples;Min_cycle;Max_cycle;Signal;HPM_P1;HPM_P2
2021/08/28 00:01:18;;;;;;;38.57;34.67;;;14.20;99.90;;;;;;4997503;28;20912;-68
2021/08/28 00:03:45;;;;;;;41.30;37.23;;;14.30;99.90;;;;;;4997419;28;20527;-68
2021/08/28 00:06:12;;;;;;;39.97;35.97;;;14.30;99.90;;;;;;4997210;28;20469;-68
2021/08/28 00:08:40;;;;;;;37.83;34.23;;;14.30;99.90;;;;;;4997972;28;20492;-68
2021/08/28 00:11:07;;;;;;;36.40;32.90;;;14.20;99.90;;;;;;4997123;28;20826;-68
2021/08/28 00:13:34;;;;;;;37.40;33.70;;;14.20;99.90;;;;;;4997241;28;20492;-68
2021/08/28 00:16:01;;;;;;;37.73;34.23;;;14.30;99.90;;;;;;4997416;28;20465;-68
2021/08/28 00:18:32;;;;;;;36.87;33.17;;;14.30;99.90;;;;;;4997538;28;20571;-68
2021/08/28 00:20:59;;;;;;;37.80;33.73;;;14.30;99.90;;;;;;4997678;28;20523;-68
2021/08/28 00:23:26;;;;;;;35.30;32.00;;;14.20;99.90;;;;;;4999845;28;20894;-68
2021/08/28 00:25:57;;;;;;;37.50;33.90;;;14.30;99.90;;;;;;5017015;28;20474;-68
2021/08/28 00:28:24;;;;;;;34.10;30.63;;;14.30;99.90;;;;;;5018311;28;20470;-68
2021/08/28 00:30:55;;;;;;;33.37;30.07;;;14.30;99.90;;;;;;5020542;28;20504;-68
2021/08/28 00:33:22;;;;;;;25.70;23.20;;;14.30;99.90;;;;;;5020560;28;20495;-68
2021/08/28 00:35:49;;;;;;;27.57;25.27;;;14.30;99.90;;;;;;5020938;28;20491;-68
2021/08/28 00:38:16;;;;;;;31.17;26.30;;;14.20;99.90;;;;;;5020794;28;21033;-68
2021/08/28 00:40:44;;;;;;;26.07;23.70;;;14.30;99.90;;;;;;5020512;28;20530;-68
2021/08/28 00:43:15;;;;;;;25.37;23.17;;;14.40;99.90;;;;;;5021008;28;20495;-68
2021/08/28 00:45:43;;;;;;;24.53;21.97;;;14.30;99.90;;;;;;5020389;28;20495;-68
2021/08/28 00:48:12;;;;;;;23.90;21.57;;;14.30;99.90;;;;;;5020593;28;20467;-68
2021/08/28 00:50:41;;;;;;;21.70;19.40;;;14.20;99.90;;;;;;5020699;28;20755;-68
2021/08/28 00:53:09;;;;;;;27.30;18.53;;;14.20;99.90;;;;;;5020990;28;20492;-68
2021/08/28 00:55:38;;;;;;;21.17;18.40;;;14.20;99.90;;;;;;5020465;28;20530;-68
2021/08/28 00:58:06;;;;;;;20.70;18.80;;;14.20;99.90;;;;;;5020492;28;20878;-68
2021/08/28 01:00:41;;;;;;;20.43;18.63;;;14.20;99.90;;;;;;5020600;28;20468;-68
2021/08/28 01:03:09;;;;;;;18.50;16.63;;;14.20;99.90;;;;;;5020597;28;20446;-68
2021/08/28 01:05:44;;;;;;;20.60;17.33;;;14.20;99.90;;;;;;5020616;28;20766;-68
2021/08/28 01:08:20;;;;;;;19.33;17.80;;;14.20;99.90;;;;;;5020602;28;20514;-68
2021/08/28 01:10:54;;;;;;;19.13;17.13;;;14.10;99.90;;;;;;5020557;28;20459;-68
2021/08/28 01:13:23;;;;;;;19.93;18.13;;;14.20;99.90;;;;;;5019966;28;20880;-68
2021/08/28 01:15:53;;;;;;;21.97;19.90;;;14.10;99.90;;;;;;5019932;28;20527;-68
2021/08/28 01:18:22;;;;;;;19.80;18.00;;;14.10;99.90;;;;;;5020139;28;20494;-68
2021/08/28 01:20:58;;;;;;;20.53;18.63;;;14.20;99.90;;;;;;5020331;28;20467;-68
2021/08/28 01:23:29;;;;;;;21.33;19.53;;;14.20;99.90;;;;;;5019059;28;20733;-68
2021/08/28 01:26:01;;;;;;;21.97;19.33;;;14.20;99.90;;;;;;5006612;28;20808;-68
2021/08/28 01:28:32;;;;;;;20.87;18.87;;;14.20;99.90;;;;;;5008045;28;20537;-68
2021/08/28 01:31:01;;;;;;;20.80;18.90;;;14.20;99.90;;;;;;5020114;28;20573;-68
2021/08/28 01:33:29;;;;;;;21.50;19.50;;;14.20;99.90;;;;;;5019077;28;20865;-68
2021/08/28 01:35:56;;;;;;;22.20;20.20;;;14.30;99.90;;;;;;5019582;28;20460;-68
2021/08/28 01:38:24;;;;;;;19.30;17.60;;;14.30;99.90;;;;;;5019633;28;20492;-68
2021/08/28 01:40:52;;;;;;;22.80;18.60;;;14.20;99.90;;;;;;5019457;28;20857;-68
2021/08/28 01:43:19;;;;;;;20.80;18.90;;;14.20;99.90;;;;;;5018710;28;20534;-68
2021/08/28 01:45:48;;;;;;;19.87;18.17;;;14.20;99.90;;;;;;5019498;28;20467;-68
2021/08/28 01:48:20;;;;;;;22.03;19.83;;;14.20;99.90;;;;;;5019602;28;20526;-68
2021/08/28 01:50:48;;;;;;;22.77;20.57;;;14.20;99.90;;;;;;5019895;28;20813;-68
2021/08/28 01:53:15;;;;;;;23.57;21.40;;;14.20;99.90;;;;;;5019866;28;20466;-68
2021/08/28 01:55:43;;;;;;;23.80;21.60;;;14.20;99.90;;;;;;5019445;28;20496;-68
2021/08/28 01:58:11;;;;;;;22.43;20.33;;;14.20;99.90;;;;;;5019227;28;20473;-68
2021/08/28 02:00:39;;;;;;;25.67;22.93;;;14.30;99.90;;;;;;5019226;28;20498;-68
2021/08/28 02:03:05;;;;;;;23.57;21.43;;;14.20;99.90;;;;;;5019694;28;20460;-68
2021/08/28 02:05:41;;;;;;;27.50;24.60;;;14.20;99.90;;;;;;5019043;28;20526;-68
2021/08/28 02:08:16;;;;;;;25.23;22.90;;;14.20;99.90;;;;;;5018907;28;20886;-68
2021/08/28 02:10:48;;;;;;;25.80;23.17;;;14.20;99.90;;;;;;5019372;28;20463;-68
2021/08/28 02:13:24;;;;;;;27.37;24.43;;;14.10;99.90;;;;;;5019545;28;20558;-68
2021/08/28 02:15:54;;;;;;;26.93;24.13;;;14.10;99.90;;;;;;5018929;28;20993;-68
2021/08/28 02:18:27;;;;;;;27.57;24.47;;;14.10;99.90;;;;;;5018969;28;20869;-68
2021/08/28 02:20:59;;;;;;;31.10;25.37;;;14.10;99.90;;;;;;5019239;28;20496;-68
2021/08/28 02:23:32;;;;;;;26.80;24.07;;;14.20;99.90;;;;;;5017280;28;20530;-68
2021/08/28 02:26:03;;;;;;;29.20;26.10;;;14.10;99.90;;;;;;5015016;28;20526;-68
2021/08/28 02:28:36;;;;;;;29.60;26.50;;;14.00;99.90;;;;;;5015456;28;20605;-68
2021/08/28 02:31:05;;;;;;;28.97;25.70;;;14.00;99.90;;;;;;5002522;28;20964;-68
2021/08/28 02:33:32;;;;;;;30.90;25.63;;;14.10;99.90;;;;;;5015044;28;20475;-67
2021/08/28 02:36:04;;;;;;;31.73;26.87;;;14.00;99.90;;;;;;5018486;28;20496;-67
2021/08/28 02:38:32;;;;;;;29.07;25.27;;;14.00;99.90;;;;;;5018571;28;20546;-68
2021/08/28 02:41:01;;;;;;;32.77;28.20;;;14.10;99.90;;;;;;5018317;28;20491;-68
2021/08/28 02:43:30;;;;;;;30.83;27.33;;;14.10;99.90;;;;;;5018859;28;20535;-68
2021/08/28 02:45:58;;;;;;;33.60;29.37;;;14.00;99.90;;;;;;5017562;28;20471;-68
2021/08/28 02:48:27;;;;;;;33.30;29.80;;;14.00;99.90;;;;;;5018388;28;20496;-68
2021/08/28 02:50:55;;;;;;;32.27;28.77;;;14.00;99.90;;;;;;5018716;28;20464;-68
2021/08/28 02:53:26;;;;;;;32.30;28.23;;;14.00;99.90;;;;;;5018135;28;20468;-67
2021/08/28 02:55:54;;;;;;;33.47;28.07;;;13.90;99.90;;;;;;5017117;28;20814;-67
2021/08/28 02:58:22;;;;;;;32.60;28.90;;;13.90;99.90;;;;;;5018282;28;20468;-67
2021/08/28 03:00:52;;;;;;;33.13;29.37;;;13.90;99.90;;;;;;5018532;28;20472;-67
2021/08/28 03:03:20;;;;;;;35.57;30.53;;;13.90;99.90;;;;;;5017757;28;20486;-67
2021/08/28 03:05:50;;;;;;;34.40;28.97;;;13.90;99.90;;;;;;5017864;28;20530;-67
2021/08/28 03:08:19;;;;;;;32.50;28.97;;;13.90;99.90;;;;;;5018131;28;20468;-67
2021/08/28 03:10:49;;;;;;;33.50;29.90;;;13.90;99.90;;;;;;5017670;28;20896;-67
2021/08/28 03:13:17;;;;;;;32.47;28.30;;;14.00;99.90;;;;;;5018041;28;20511;-67
2021/08/28 03:15:44;;;;;;;32.83;28.67;;;14.00;99.90;;;;;;5018014;28;20503;-67
2021/08/28 03:18:13;;;;;;;30.83;27.73;;;14.00;99.90;;;;;;5017700;28;20464;-67
2021/08/28 03:20:41;;;;;;;30.90;27.60;;;14.00;99.90;;;;;;5017853;28;20532;-67
2021/08/28 03:23:10;;;;;;;31.10;27.80;;;13.90;99.90;;;;;;5018164;28;20812;-67
2021/08/28 03:25:38;;;;;;;34.67;27.03;;;14.00;99.90;;;;;;5001342;28;20527;-67
2021/08/28 03:28:07;;;;;;;32.30;28.70;;;14.00;99.90;;;;;;5003950;28;20465;-67
2021/08/28 03:30:34;;;;;;;33.67;30.10;;;14.00;99.90;;;;;;5017624;28;20518;-67
2021/08/28 03:33:01;;;;;;;32.80;29.30;;;14.10;99.90;;;;;;5016824;28;20464;-67
2021/08/28 03:35:28;;;;;;;34.03;28.40;;;14.10;99.90;;;;;;5017759;28;20491;-67
2021/08/28 03:37:57;;;;;;;31.20;27.90;;;14.10;99.90;;;;;;5017880;28;20492;-67
2021/08/28 03:40:25;;;;;;;31.47;26.47;;;14.00;99.90;;;;;;5017046;28;20574;-67
2021/08/28 03:42:52;;;;;;;31.60;28.30;;;14.00;99.90;;;;;;5017971;28;20470;-67
2021/08/28 03:45:21;;;;;;;31.67;27.83;;;14.00;99.90;;;;;;5017606;28;20503;-67
2021/08/28 03:47:48;;;;;;;32.67;28.53;;;14.00;99.90;;;;;;5017295;28;20464;-67
2021/08/28 03:50:15;;;;;;;31.67;28.20;;;14.00;99.90;;;;;;5017393;28;20763;-67
2021/08/28 03:52:42;;;;;;;31.90;28.47;;;14.00;99.90;;;;;;5017531;28;20464;-67
2021/08/28 03:55:09;;;;;;;31.97;28.50;;;14.00;99.90;;;;;;5017343;28;20982;-67
2021/08/28 03:57:39;;;;;;;32.00;28.57;;;14.00;99.90;;;;;;5016781;28;20464;-67
2021/08/28 04:00:08;;;;;;;33.07;29.33;;;14.00;99.90;;;;;;5017283;28;20527;-67
2021/08/28 04:02:36;;;;;;;30.60;26.67;;;14.10;99.90;;;;;;5017270;28;20460;-67
2021/08/28 04:05:03;;;;;;;32.07;28.10;;;14.10;99.90;;;;;;5017305;28;20967;-67
2021/08/28 04:07:38;;;;;;;34.50;27.50;;;14.00;99.90;;;;;;5016864;28;20522;-67
2021/08/28 04:10:06;;;;;;;34.20;29.60;;;14.00;99.90;;;;;;5017288;28;20538;-67
2021/08/28 04:12:33;;;;;;;32.30;27.67;;;14.00;99.90;;;;;;5017487;28;20463;-67
2021/08/28 04:15:00;;;;;;;31.77;27.80;;;14.00;99.90;;;;;;5017074;28;20498;-66
2021/08/28 04:50:21;;;;;;;43.10;31.00;;;14.30;99.90;;;;;;5442384;23;20560;-64
2021/08/28 04:52:48;;;;;;;39.77;29.93;;;14.30;99.90;;;;;;4990626;28;20515;-64
2021/08/28 04:55:18;;;;;;;41.00;32.07;;;14.40;99.90;;;;;;4997259;28;20492;-64
2021/08/28 04:57:45;;;;;;;43.40;31.97;;;14.40;99.90;;;;;;4997140;28;20528;-64
2021/08/28 05:00:13;;;;;;;40.13;32.37;;;14.40;99.90;;;;;;4996622;28;20540;-64
2021/08/28 05:02:40;;;;;;;38.20;30.27;;;14.40;99.90;;;;;;4997010;28;20465;-64
2021/08/28 05:05:11;;;;;;;44.00;31.33;;;14.40;99.90;;;;;;4997148;28;20546;-64
2021/08/28 06:15:57;;;;;;;6.07;5.50;;;14.50;99.90;;;;;;2956350;23;20452;-67
2021/08/28 06:18:24;;;;;;;6.57;5.97;;;14.40;99.90;;;;;;4998394;28;20472;-66
2021/08/28 06:20:53;;;;;;;6.10;5.60;;;14.40;99.90;;;;;;4998953;28;20528;-68
2021/08/28 06:23:21;;;;;;;6.17;5.67;;;14.20;99.90;;;;;;4999125;28;20465;-68
2021/08/28 06:25:47;;;;;;;6.30;5.80;;;14.30;99.90;;;;;;4993841;28;20476;-68
2021/08/28 07:36:56;;;;;;;9.10;8.20;;;14.60;99.90;;;;;;4485846;23;20493;-66
2021/08/28 07:39:24;;;;;;;8.70;7.90;;;14.80;99.90;;;;;;4997809;28;20528;-66
2021/08/28 07:41:51;;;;;;;10.40;9.27;;;14.90;99.90;;;;;;4997741;28;20493;-66
2021/08/28 07:44:20;;;;;;;9.00;8.10;;;15.10;99.90;;;;;;4997766;28;20502;-66
2021/08/28 07:46:48;;;;;;;9.87;7.40;;;15.10;99.90;;;;;;4997361;28;20444;-66
2021/08/28 07:49:15;;;;;;;8.40;7.60;;;15.10;99.90;;;;;;4997643;28;20469;-65
2021/08/28 07:51:45;;;;;;;7.60;6.80;;;15.00;99.90;;;;;;4997849;28;20519;-66
2021/08/28 08:27:53;;;;;;;5.80;5.20;;;14.70;99.90;;;;;;5053993;23;20489;-65
2021/08/28 08:30:22;;;;;;;6.00;5.50;;;14.90;99.90;;;;;;5014592;28;20457;-70
2021/08/28 08:32:48;;;;;;;6.53;5.73;;;14.90;99.90;;;;;;5009291;28;20468;-71
2021/08/28 08:35:17;;;;;;;6.07;5.50;;;14.90;99.90;;;;;;5004853;28;20852;-70
2021/08/28 08:37:45;;;;;;;6.23;5.83;;;14.80;99.90;;;;;;5008047;28;20461;-69
2021/08/28 08:40:16;;;;;;;6.30;5.80;;;14.70;99.90;;;;;;5007238;28;20507;-69
2021/08/28 08:42:48;;;;;;;7.20;6.50;;;14.70;99.90;;;;;;5009578;28;20848;-73
2021/08/28 08:45:21;;;;;;;7.30;6.60;;;14.70;99.90;;;;;;5012855;28;20468;-70
2021/08/28 08:47:49;;;;;;;7.80;7.00;;;14.80;99.90;;;;;;5019864;28;20498;-69
2021/08/28 08:50:21;;;;;;;7.73;6.80;;;14.80;99.90;;;;;;5019474;28;20463;-69
2021/08/28 08:52:52;;;;;;;7.00;6.30;;;14.80;99.90;;;;;;5016808;28;20474;-68
2021/08/28 08:55:20;;;;;;;6.50;5.97;;;14.80;99.90;;;;;;5014602;28;20464;-68
2021/08/28 08:57:47;;;;;;;6.10;5.27;;;14.80;99.90;;;;;;5018795;28;20526;-68
2021/08/28 09:00:21;;;;;;;7.17;6.50;;;14.80;99.90;;;;;;5019115;28;20535;-66
2021/08/28 09:02:50;;;;;;;7.80;7.00;;;14.90;99.90;;;;;;5018626;28;20911;-68
2021/08/28 09:05:17;;;;;;;10.87;7.60;;;14.90;99.90;;;;;;5018758;28;20438;-70
2021/08/28 09:07:46;;;;;;;7.10;6.50;;;14.80;99.90;;;;;;5019290;28;20487;-68
2021/08/28 09:10:13;;;;;;;7.97;7.20;;;14.80;99.90;;;;;;5019304;28;20472;-69
2021/08/28 09:12:43;;;;;;;7.90;7.10;;;15.00;99.90;;;;;;5019179;28;20468;-66
2021/08/28 09:15:13;;;;;;;9.13;8.23;;;15.20;99.90;;;;;;5019830;28;20522;-67
2021/08/28 09:17:43;;;;;;;10.00;9.00;;;15.30;99.90;;;;;;5019852;28;20463;-68
2021/08/28 09:20:22;;;;;;;9.53;8.63;;;15.50;99.90;;;;;;5019791;28;20491;-68
2021/08/28 09:22:49;;;;;;;10.10;8.63;;;15.70;99.90;;;;;;5019534;28;20470;-68
2021/08/28 09:25:27;;;;;;;9.70;8.70;;;15.90;99.90;;;;;;5003649;28;20539;-67
2021/08/28 09:27:56;;;;;;;9.30;8.50;;;15.90;99.90;;;;;;5004858;28;20494;-65
2021/08/28 09:30:27;;;;;;;9.63;8.73;;;15.80;99.90;;;;;;5000033;28;20523;-65
2021/08/28 09:32:58;;;;;;;14.93;9.90;;;15.90;99.90;;;;;;5019431;28;20474;-65
2021/08/28 09:35:26;;;;;;;9.97;8.97;;;16.10;99.90;;;;;;5019535;28;20492;-66
2021/08/28 09:37:56;;;;;;;12.87;8.60;;;16.60;99.90;;;;;;5019450;28;20489;-66
2021/08/28 09:40:28;;;;;;;9.47;8.57;;;16.90;99.90;;;;;;5019307;28;21018;-66
2021/08/28 09:42:59;;;;;;;10.50;9.13;;;16.80;99.90;;;;;;5019227;28;20463;-65
2021/08/28 09:45:27;;;;;;;11.30;10.10;;;16.70;99.90;;;;;;5018779;28;20539;-65
2021/08/28 09:47:57;;;;;;;10.20;9.20;;;16.80;99.90;;;;;;5019642;28;20513;-65
2021/08/28 09:50:27;;;;;;;11.10;10.10;;;16.80;99.90;;;;;;5015765;28;20519;-65
2021/08/28 09:52:54;;;;;;;9.43;8.63;;;17.10;99.90;;;;;;5005764;28;20518;-65
2021/08/28 09:55:27;;;;;;;12.63;10.50;;;16.90;99.90;;;;;;5007941;28;20819;-65
2021/08/28 09:57:54;;;;;;;9.33;8.53;;;16.80;99.90;;;;;;5004209;28;20555;-66
2021/08/28 10:00:24;;;;;;;9.97;8.97;;;16.40;99.90;;;;;;5002118;28;20496;-65
2021/08/28 10:03:02;;;;;;;11.27;10.10;;;16.40;99.90;;;;;;5004564;28;20525;-65
2021/08/28 10:05:30;;;;;;;11.30;9.47;;;16.60;99.90;;;;;;5018818;28;20559;-65
2021/08/28 10:08:02;;;;;;;10.93;9.83;;;16.60;99.90;;;;;;5019112;28;20776;-65
2021/08/28 10:10:33;;;;;;;10.73;9.50;;;16.60;99.90;;;;;;5013750;28;20465;-65
2021/08/28 10:13:02;;;;;;;11.30;10.20;;;16.60;99.90;;;;;;5018245;28;20472;-65
2021/08/28 10:15:31;;;;;;;13.80;10.60;;;16.50;99.90;;;;;;5018740;28;20468;-65
2021/08/28 10:18:03;;;;;;;10.90;9.40;;;16.50;99.90;;;;;;5018807;28;20464;-66
2021/08/28 10:20:31;;;;;;;11.40;10.20;;;16.70;99.90;;;;;;5017934;28;20492;-66
2021/08/28 10:23:09;;;;;;;11.93;10.13;;;16.50;99.90;;;;;;5016795;28;20530;-66
2021/08/28 10:25:44;;;;;;;17.37;10.67;;;16.40;99.90;;;;;;5008775;28;20463;-66
2021/08/28 10:28:12;;;;;;;11.30;10.10;;;16.60;99.90;;;;;;5013798;28;20468;-66
2021/08/28 10:30:39;;;;;;;11.80;10.60;;;16.40;99.90;;;;;;5018192;28;20514;-66
2021/08/28 10:33:15;;;;;;;13.60;11.50;;;16.60;99.90;;;;;;5016898;28;20752;-66
2021/08/28 10:35:44;;;;;;;14.03;10.90;;;16.70;99.90;;;;;;5017721;28;20924;-66
2021/08/28 10:38:14;;;;;;;11.60;10.40;;;16.70;99.90;;;;;;5018540;28;20471;-65
2021/08/28 10:40:45;;;;;;;10.57;9.57;;;16.70;99.90;;;;;;5017840;28;20496;-65
2021/08/28 10:43:15;;;;;;;13.27;10.80;;;17.00;99.90;;;;;;5018235;28;20900;-65
2021/08/28 10:45:42;;;;;;;13.37;11.90;;;17.10;99.90;;;;;;5018373;28;20468;-65
2021/08/28 10:48:13;;;;;;;12.10;10.50;;;17.20;99.90;;;;;;5017674;28;20518;-65
2021/08/28 10:50:41;;;;;;;13.00;11.30;;;17.10;99.90;;;;;;5000396;28;20465;-65
2021/08/28 10:53:11;;;;;;;11.17;10.17;;;17.00;99.90;;;;;;5015259;28;20478;-65
2021/08/28 10:55:41;;;;;;;11.43;10.43;;;16.90;99.90;;;;;;5016447;28;20460;-65
2021/08/28 10:58:18;;;;;;;11.90;10.63;;;16.70;99.90;;;;;;5017333;28;20960;-65
2021/08/28 11:00:49;;;;;;;11.53;10.53;;;16.80;99.90;;;;;;5015357;28;20874;-65
2021/08/28 11:03:35;;;;;;;12.30;11.10;;;16.70;99.90;;;;;;5015724;28;20869;-65
2021/08/28 11:06:30;;;;;;;14.33;11.00;;;17.10;99.90;;;;;;5006028;28;20472;-65
2021/08/28 11:09:00;;;;;;;12.00;10.90;;;17.50;99.90;;;;;;4922873;29;20597;-65
2021/08/28 11:11:35;;;;;;;12.33;11.13;;;17.90;99.90;;;;;;4942987;28;20439;-65
2021/08/28 11:14:03;;;;;;;11.57;10.47;;;18.20;99.90;;;;;;5003737;28;20458;-65
2021/08/28 11:16:55;;;;;;;11.80;10.80;;;17.90;99.90;;;;;;5016635;28;20943;-65
2021/08/28 11:19:38;;;;;;;13.73;12.63;;;17.20;99.90;;;;;;5016934;28;20794;-65
2021/08/28 11:22:20;;;;;;;11.03;10.03;;;17.00;99.90;;;;;;5014597;28;20504;-65
2021/08/28 11:25:00;;;;;;;10.87;9.90;;;16.90;1.00;;;;;;4999389;28;20468;-65
2021/08/28 11:27:42;;;;;;;11.57;10.57;;;16.90;99.90;;;;;;5002268;28;20862;-65
2021/08/28 11:30:18;;;;;;;10.73;9.83;;;16.60;99.90;;;;;;4997456;28;20563;-66
2021/08/28 11:33:01;;;;;;;10.97;9.83;;;16.60;1.00;;;;;;4998270;28;20465;-65
2021/08/28 11:35:32;;;;;;;9.40;8.50;;;16.90;64.80;;;;;;5000290;28;20497;-65
2021/08/28 11:38:05;;;;;;;10.17;9.17;;;17.40;56.20;;;;;;5013859;28;20467;-65
2021/08/28 11:40:36;;;;;;;10.03;8.23;;;17.90;99.90;;;;;;5006403;28;20496;-65
2021/08/28 11:43:05;;;;;;;9.03;8.10;;;18.60;98.20;;;;;;4997133;28;20757;-65
2021/08/28 11:45:40;;;;;;;8.43;7.70;;;19.20;99.90;;;;;;4998218;28;20812;-64
2021/08/28 11:48:12;;;;;;;11.53;7.97;;;19.90;99.90;;;;;;5005211;28;20463;-64
2021/08/28 11:50:43;;;;;;;7.63;7.00;;;20.60;38.20;;;;;;5017402;28;20878;-61
2021/08/28 11:53:10;;;;;;;7.03;6.43;;;20.60;1.00;;;;;;5008872;28;20465;-61
2021/08/28 11:55:40;;;;;;;7.10;6.50;;;20.20;1.00;;;;;;4998344;28;20496;-61
2021/08/28 11:58:13;;;;;;;7.43;6.83;;;19.70;1.00;;;;;;4997798;28;20461;-61
2021/08/28 12:00:43;;;;;;;8.87;7.70;;;18.50;1.00;;;;;;4997601;28;20496;-60
2021/08/28 12:03:11;;;;;;;7.70;7.00;;;18.70;87.00;;;;;;4997798;28;20464;-61
2021/08/28 12:05:47;;;;;;;8.33;7.43;;;18.90;35.30;;;;;;4997834;28;20948;-60
2021/08/28 12:08:16;;;;;;;8.00;7.30;;;19.00;1.00;;;;;;4997698;28;20880;-60
2021/08/28 12:10:44;;;;;;;9.17;8.37;;;19.70;1.00;;;;;;4997408;28;20469;-61
2021/08/28 12:13:12;;;;;;;10.13;9.23;;;19.40;1.00;;;;;;4997806;28;20563;-65
2021/08/28 12:15:40;;;;;;;10.17;9.37;;;18.70;99.90;;;;;;5008719;28;20469;-67
2021/08/28 12:18:10;;;;;;;9.03;8.33;;;18.00;1.00;;;;;;5015899;28;20476;-64
2021/08/28 12:20:37;;;;;;;10.40;9.40;;;17.60;99.90;;;;;;5018126;28;20880;-65
2021/08/28 12:23:06;;;;;;;10.20;9.30;;;17.40;1.00;;;;;;5013104;28;20799;-65
2021/08/28 12:25:34;;;;;;;13.27;9.30;;;17.30;21.10;;;;;;5006902;28;20901;-66
2021/08/28 12:28:01;;;;;;;12.07;10.80;;;17.20;1.00;;;;;;5004198;28;20461;-68
2021/08/28 12:30:30;;;;;;;11.27;10.17;;;17.20;1.00;;;;;;5016644;28;20472;-67
2021/08/28 12:32:57;;;;;;;11.67;10.47;;;17.10;1.00;;;;;;5004558;28;20900;-65
2021/08/28 12:35:24;;;;;;;12.07;10.77;;;17.10;1.00;;;;;;5014008;28;20525;-66
2021/08/28 12:37:51;;;;;;;14.73;11.67;;;17.30;99.90;;;;;;5017678;28;20578;-67
2021/08/28 12:40:24;;;;;;;11.77;10.00;;;17.60;99.90;;;;;;5004223;28;20460;-68
2021/08/28 12:42:53;;;;;;;12.37;10.30;;;18.00;99.90;;;;;;5012854;28;20479;-68
2021/08/28 12:45:21;;;;;;;10.43;9.53;;;18.20;1.00;;;;;;5002737;28;20519;-68
2021/08/28 12:47:51;;;;;;;11.67;10.50;;;18.00;1.00;;;;;;5000481;28;20460;-67
2021/08/28 12:50:23;;;;;;;13.03;9.67;;;18.40;1.00;;;;;;4999364;28;20464;-66
2021/08/28 12:52:50;;;;;;;11.77;10.53;;;18.90;99.90;;;;;;5000072;28;20555;-66
2021/08/28 12:55:23;;;;;;;9.77;8.93;;;19.30;99.90;;;;;;5000200;28;20589;-64
2021/08/28 12:58:00;;;;;;;10.27;9.20;;;19.80;99.90;;;;;;5000720;28;20519;-63
2021/08/28 13:00:30;;;;;;;10.50;9.50;;;20.50;1.00;;;;;;5000642;28;20439;-63
2021/08/28 13:03:03;;;;;;;10.33;9.33;;;20.10;99.90;;;;;;5014674;28;20467;-63
2021/08/28 13:05:32;;;;;;;10.70;9.60;;;19.50;54.80;;;;;;5019667;28;20590;-63
2021/08/28 13:08:00;;;;;;;9.87;9.07;;;19.20;1.00;;;;;;5006479;28;20862;-63
2021/08/28 13:10:30;;;;;;;10.40;9.33;;;18.70;1.00;;;;;;5006493;28;20459;-63
2021/08/28 13:13:04;;;;;;;9.90;9.00;;;18.80;99.90;;;;;;5019908;28;20459;-63
2021/08/28 13:15:44;;;;;;;9.13;8.23;;;19.50;1.00;;;;;;5011490;28;20924;-62
2021/08/28 13:18:17;;;;;;;9.17;8.37;;;20.10;99.90;;;;;;5020438;28;20533;-62
2021/08/28 13:20:50;;;;;;;8.40;7.70;;;21.00;99.90;;;;;;5020128;28;20550;-62
2021/08/28 13:23:26;;;;;;;8.17;7.43;;;20.60;1.00;;;;;;5013835;28;20469;-62
2021/08/28 13:26:01;;;;;;;9.23;8.53;;;20.50;1.00;;;;;;5008770;28;20491;-62
2021/08/28 13:28:31;;;;;;;8.43;7.63;;;19.70;11.20;;;;;;5010273;28;20530;-62
2021/08/28 13:31:15;;;;;;;8.07;7.37;;;19.50;8.00;;;;;;5015250;28;20467;-61
2021/08/28 13:33:45;;;;;;;7.93;7.23;;;19.30;29.50;;;;;;5015657;28;20522;-62
2021/08/28 13:36:13;;;;;;;8.70;8.03;;;19.20;99.90;;;;;;5019644;28;20530;-62
2021/08/28 13:38:41;;;;;;;7.37;6.70;;;18.90;66.70;;;;;;5018601;28;20869;-62
2021/08/28 13:41:14;;;;;;;7.20;6.60;;;18.80;99.90;;;;;;5017823;28;20971;-62
2021/08/28 13:43:48;;;;;;;7.23;6.63;;;18.60;99.90;;;;;;5017793;28;20467;-62
2021/08/28 13:46:17;;;;;;;6.60;6.10;;;18.80;1.00;;;;;;5009954;28;20474;-63
2021/08/28 13:48:47;;;;;;;6.90;5.80;;;18.70;99.90;;;;;;5017377;28;20464;-63
2021/08/28 13:51:17;;;;;;;6.57;5.97;;;18.80;99.90;;;;;;5018074;28;20460;-63
2021/08/28 13:53:46;;;;;;;5.63;5.13;;;19.10;99.90;;;;;;5018830;28;20756;-62
2021/08/28 13:56:16;;;;;;;5.97;5.47;;;19.40;41.10;;;;;;5018463;28;20522;-62
2021/08/28 13:58:44;;;;;;;6.03;5.47;;;19.60;38.80;;;;;;5018989;28;20530;-62
2021/08/28 14:01:12;;;;;;;7.87;7.10;;;19.20;1.00;;;;;;5019287;28;20589;-63
2021/08/28 14:03:45;;;;;;;7.23;6.53;;;19.00;1.00;;;;;;5019429;28;20538;-63
2021/08/28 14:06:12;;;;;;;8.77;8.07;;;18.40;99.90;;;;;;5019616;28;20463;-63
2021/08/28 14:08:42;;;;;;;9.27;8.40;;;18.10;1.00;;;;;;5019011;28;20472;-65
2021/08/28 14:11:09;;;;;;;9.10;8.30;;;17.70;99.90;;;;;;5018875;28;20456;-62
2021/08/28 14:13:36;;;;;;;11.30;10.20;;;17.30;1.00;;;;;;5019237;28;20472;-62
2021/08/28 14:16:08;;;;;;;9.40;8.60;;;17.30;1.00;;;;;;5001418;28;20476;-63
2021/08/28 14:18:35;;;;;;;9.47;8.57;;;17.40;1.00;;;;;;5017669;28;20468;-66
2021/08/28 14:21:03;;;;;;;10.80;9.80;;;17.40;99.90;;;;;;5018434;28;20526;-64
2021/08/28 14:23:32;;;;;;;9.03;8.13;;;17.60;30.50;;;;;;5016815;28;20880;-64
2021/08/28 14:25:59;;;;;;;11.23;9.00;;;17.60;29.70;;;;;;4999488;28;20558;-65
2021/08/28 14:28:27;;;;;;;10.23;9.33;;;18.10;99.90;;;;;;5017860;28;20884;-67
2021/08/28 14:30:54;;;;;;;9.97;9.03;;;18.70;1.00;;;;;;5018821;28;20895;-69
2021/08/28 14:33:24;;;;;;;9.00;8.17;;;19.20;1.00;;;;;;5018680;28;20475;-68
2021/08/28 14:35:51;;;;;;;9.97;9.03;;;19.40;99.90;;;;;;5017986;28;20475;-67
2021/08/28 14:38:24;;;;;;;10.07;9.07;;;19.80;99.90;;;;;;5012847;28;20931;-67
2021/08/28 14:40:53;;;;;;;9.80;8.90;;;19.60;1.00;;;;;;4999535;28;20887;-66
2021/08/28 14:43:23;;;;;;;9.97;9.07;;;19.60;99.90;;;;;;5002119;28;20962;-66
2021/08/28 14:45:50;;;;;;;9.40;8.60;;;19.40;99.90;;;;;;5016893;28;20776;-66
2021/08/28 14:48:17;;;;;;;10.63;9.63;;;19.20;99.90;;;;;;5018302;28;20947;-66
2021/08/28 14:50:48;;;;;;;10.23;9.40;;;19.20;99.90;;;;;;5018123;28;20467;-66
2021/08/28 14:53:18;;;;;;;8.70;7.90;;;19.00;99.90;;;;;;5017275;28;20460;-66
2021/08/28 14:55:45;;;;;;;7.73;7.03;;;18.10;99.90;;;;;;5012250;28;20471;-69
2021/08/28 14:58:14;;;;;;;7.20;6.57;;;17.30;1.00;;;;;;5018173;28;20518;-66
2021/08/28 15:00:41;;;;;;;6.27;5.77;;;16.80;99.90;;;;;;5018115;28;20468;-66
2021/08/28 15:03:09;;;;;;;5.87;5.37;;;16.60;96.90;;;;;;5018321;28;20495;-65
2021/08/28 15:05:36;;;;;;;5.90;5.40;;;16.60;99.90;;;;;;5018586;28;20530;-65
2021/08/28 15:08:07;;;;;;;5.40;4.90;;;16.70;99.90;;;;;;5017770;28;20492;-66
2021/08/28 15:10:34;;;;;;;5.37;4.90;;;16.80;99.90;;;;;;5018063;28;20982;-67
2021/08/28 15:13:01;;;;;;;5.77;5.27;;;16.70;99.90;;;;;;5018061;28;20889;-66
2021/08/28 15:15:34;;;;;;;5.47;4.97;;;16.90;99.90;;;;;;5016952;28;20460;-66
2021/08/28 15:18:02;;;;;;;4.93;4.43;;;16.90;99.90;;;;;;5018399;28;20538;-66
2021/08/28 15:20:29;;;;;;;4.77;4.37;;;17.10;99.90;;;;;;5017214;28;20499;-67
2021/08/28 15:22:57;;;;;;;4.80;4.40;;;17.40;99.90;;;;;;5017015;28;20492;-69
2021/08/28 15:25:28;;;;;;;5.80;5.30;;;17.70;99.90;;;;;;5003717;28;20927;-70
2021/08/28 15:27:55;;;;;;;4.53;4.13;;;18.20;99.90;;;;;;5007509;28;20545;-70
2021/08/28 15:30:24;;;;;;;4.40;4.10;;;18.30;99.90;;;;;;5011059;28;20464;-68
2021/08/28 15:32:51;;;;;;;3.73;3.43;;;18.30;99.90;;;;;;5014229;28;20471;-69
2021/08/28 15:35:18;;;;;;;4.23;3.93;;;18.40;99.90;;;;;;5005051;28;20456;-68
2021/08/28 15:37:48;;;;;;;4.67;4.27;;;18.40;99.90;;;;;;5007414;28;20457;-68
2021/08/28 15:40:15;;;;;;;4.30;4.00;;;18.10;99.90;;;;;;5003610;28;20533;-68
2021/08/28 15:42:45;;;;;;;4.80;4.40;;;17.80;99.90;;;;;;5017348;28;20491;-67
2021/08/28 15:45:13;;;;;;;4.50;4.10;;;17.80;1.00;;;;;;5017404;28;20558;-67
2021/08/28 15:47:40;;;;;;;4.10;3.80;;;17.60;99.90;;;;;;4999775;28;20460;-67
2021/08/28 15:50:12;;;;;;;4.20;3.90;;;17.30;99.90;;;;;;5017085;28;20518;-67
2021/08/28 15:52:39;;;;;;;4.70;4.30;;;17.40;99.90;;;;;;5016819;28;20460;-67
2021/08/28 15:55:13;;;;;;;4.40;4.00;;;17.20;1.00;;;;;;5017758;28;20853;-67
2021/08/28 15:57:41;;;;;;;5.23;4.73;;;17.20;99.90;;;;;;5016503;28;20735;-67
2021/08/28 16:00:13;;;;;;;4.47;4.07;;;17.20;99.90;;;;;;5008047;28;20460;-67
2021/08/28 16:02:41;;;;;;;4.80;4.40;;;17.20;99.90;;;;;;5006467;28;20492;-67
2021/08/28 16:05:09;;;;;;;5.33;4.93;;;17.10;99.90;;;;;;5008470;28;20464;-67
2021/08/28 16:07:41;;;;;;;4.30;4.00;;;17.00;99.90;;;;;;5017496;28;20772;-67
2021/08/28 16:10:10;;;;;;;5.03;4.40;;;17.20;99.90;;;;;;5017032;28;20864;-67
2021/08/28 16:12:39;;;;;;;5.33;4.83;;;16.80;99.90;;;;;;5017302;28;20907;-67
2021/08/28 16:15:11;;;;;;;5.00;4.60;;;16.70;99.90;;;;;;5016987;28;20735;-67